createdAt,value
2018-03-12T01:43:10.431Z,5.02
2018-03-12T01:43:11.003Z,4.99
2018-03-12T01:43:11.604Z,5.04
2018-03-12T01:43:12.202Z,5.04
2018-03-12T01:43:12.802Z,4.98
2018-03-12T01:43:13.402Z,4.98
2018-03-12T01:43:14.002Z,5.04
2018-03-12T01:43:14.604Z,4.98
2018-03-12T01:44:09.106Z,5.02
2018-03-12T01:44:09.691Z,4.99
2018-03-12T01:44:10.277Z,5.02
2018-03-12T01:44:10.877Z,5.10
2018-03-12T01:44:11.477Z,5.01
2018-03-12T01:44:12.077Z,4.96
2018-03-12T01:44:12.676Z,4.96
2018-03-12T01:44:13.280Z,5.04
2018-03-12T01:45:06.758Z,5.02
2018-03-12T01:45:07.333Z,5.05
2018-03-12T01:45:07.933Z,4.99
2018-03-12T01:45:08.532Z,5.04
2018-03-12T01:45:09.131Z,5.02
2018-03-12T01:45:09.738Z,4.96
2018-03-12T01:45:10.332Z,5.02
2018-03-12T01:45:10.934Z,5.02
2018-03-12T01:46:05.501Z,4.99
2018-03-12T01:46:06.010Z,4.98
2018-03-12T01:46:06.608Z,5.02
2018-03-12T01:46:07.207Z,5.04
2018-03-12T01:46:07.808Z,5.04
2018-03-12T01:46:08.407Z,5.05
2018-03-12T01:46:09.025Z,5.01
2018-03-12T01:46:09.608Z,5.02
2018-03-12T01:47:03.086Z,4.99
2018-03-12T01:47:03.662Z,5.02
2018-03-12T01:47:04.261Z,5.02
2018-03-12T01:47:04.862Z,4.96
2018-03-12T01:47:05.461Z,5.01
2018-03-12T01:47:06.060Z,5.04
2018-03-12T01:47:06.662Z,4.96
2018-03-12T01:47:07.275Z,4.99
2018-03-12T01:48:01.805Z,4.99
2018-03-12T01:48:02.344Z,5.01
2018-03-12T01:48:02.935Z,4.98
2018-03-12T01:48:03.535Z,4.95
2018-03-12T01:48:04.136Z,5.10
2018-03-12T01:48:04.736Z,4.98
2018-03-12T01:48:05.334Z,5.02
2018-03-12T01:48:05.937Z,5.02
2018-03-12T01:48:59.416Z,4.99
2018-03-12T01:48:59.989Z,5.04
2018-03-12T01:49:00.589Z,5.10
2018-03-12T01:49:01.188Z,5.04
2018-03-12T01:49:01.789Z,5.01
2018-03-12T01:49:02.389Z,5.12
2018-03-12T01:49:02.988Z,5.14
2018-03-12T01:49:03.588Z,5.17
2018-03-12T01:49:58.093Z,5.07
2018-03-12T01:49:58.664Z,5.01
2018-03-12T01:49:59.265Z,5.13
2018-03-12T01:49:59.864Z,5.13
2018-03-12T01:50:00.463Z,5.04
2018-03-12T01:50:01.064Z,5.05
2018-03-12T01:50:01.689Z,5.07
2018-03-12T01:50:02.263Z,5.10
2018-03-12T01:50:56.767Z,5.16
2018-03-12T01:50:57.341Z,5.07
2018-03-12T01:50:57.939Z,5.10
2018-03-12T01:50:58.539Z,5.10
2018-03-12T01:50:59.140Z,5.13
2018-03-12T01:50:59.740Z,5.07
2018-03-12T01:51:00.341Z,5.16
2018-03-12T01:51:00.938Z,5.07
2018-03-12T01:51:55.442Z,5.13
2018-03-12T01:51:56.016Z,5.09
2018-03-12T01:51:56.615Z,5.04
2018-03-12T01:51:57.216Z,4.99
2018-03-12T01:51:57.814Z,5.10
2018-03-12T01:51:58.416Z,5.10
2018-03-12T01:51:59.029Z,5.04
2018-03-12T01:51:59.615Z,5.07
2018-03-12T01:52:54.122Z,5.16
2018-03-12T01:52:54.695Z,5.13
2018-03-12T01:52:55.291Z,5.16
2018-03-12T01:52:55.893Z,5.16
2018-03-12T01:52:56.492Z,5.12
2018-03-12T01:52:57.092Z,5.13
2018-03-12T01:52:57.691Z,5.16
2018-03-12T01:52:58.291Z,5.10
2018-03-12T01:53:51.772Z,5.09
2018-03-12T01:53:52.344Z,5.14
2018-03-12T01:53:52.944Z,5.13
2018-03-12T01:53:53.545Z,5.13
2018-03-12T01:53:54.144Z,5.14
2018-03-12T01:53:54.743Z,5.14
2018-03-12T01:53:55.344Z,5.14
2018-03-12T01:53:55.944Z,5.10
2018-03-12T01:54:50.448Z,5.20
2018-03-12T01:54:51.019Z,5.13
2018-03-12T01:54:51.620Z,5.25
2018-03-12T01:54:52.221Z,5.16
2018-03-12T01:54:52.819Z,5.20
2018-03-12T01:54:53.419Z,5.17
2018-03-12T01:54:54.018Z,5.20
2018-03-12T01:54:54.619Z,5.16
2018-03-12T01:55:48.100Z,5.22
2018-03-12T01:55:48.674Z,5.13
2018-03-12T01:55:49.276Z,5.17
2018-03-12T01:55:49.871Z,5.27
2018-03-12T01:55:50.472Z,5.25
2018-03-12T01:55:51.072Z,5.17
2018-03-12T01:55:51.675Z,5.25
2018-03-12T01:55:52.282Z,5.20
2018-03-12T01:56:45.753Z,5.12
2018-03-12T01:56:46.324Z,5.16
2018-03-12T01:56:46.923Z,5.22
2018-03-12T01:56:47.570Z,5.22
2018-03-12T01:56:48.122Z,5.23
2018-03-12T01:56:48.722Z,5.14
2018-03-12T01:56:49.322Z,5.25
2018-03-12T01:56:49.921Z,5.30
2018-03-12T01:57:44.428Z,5.20
2018-03-12T01:57:44.999Z,5.31
2018-03-12T01:57:45.599Z,5.28
2018-03-12T01:57:46.198Z,5.30
2018-03-12T01:57:46.798Z,5.32
2018-03-12T01:57:47.399Z,5.27
2018-03-12T01:57:47.999Z,5.32
2018-03-12T01:57:48.598Z,5.32
2018-03-12T01:58:43.107Z,5.28
2018-03-12T01:58:43.674Z,5.34
2018-03-12T01:58:44.287Z,5.28
2018-03-12T01:58:44.875Z,5.34
2018-03-12T01:58:45.474Z,5.22
2018-03-12T01:58:46.075Z,5.32
2018-03-12T01:58:46.673Z,5.30
2018-03-12T01:58:47.276Z,5.34
2018-03-12T01:59:41.778Z,5.40
2018-03-12T01:59:42.350Z,5.38
2018-03-12T01:59:42.951Z,5.35
2018-03-12T01:59:43.550Z,5.32
2018-03-12T01:59:44.150Z,5.41
2018-03-12T01:59:44.751Z,5.41
2018-03-12T01:59:45.350Z,5.35
2018-03-12T01:59:45.949Z,5.38
2018-03-12T02:00:40.452Z,5.31
2018-03-12T02:00:41.026Z,5.48
2018-03-12T02:00:41.625Z,5.48
2018-03-12T02:00:42.228Z,5.35
2018-03-12T02:00:42.825Z,5.37
2018-03-12T02:00:43.426Z,5.35
2018-03-12T02:00:44.026Z,5.38
2018-03-12T02:00:44.626Z,5.37
2018-03-12T02:01:38.111Z,5.37
2018-03-12T02:01:38.677Z,5.45
2018-03-12T02:01:39.278Z,5.37
2018-03-12T02:01:39.877Z,5.41
2018-03-12T02:01:40.477Z,5.43
2018-03-12T02:01:41.078Z,5.52
2018-03-12T02:01:41.678Z,5.41
2018-03-12T02:01:42.278Z,5.49
2018-03-12T02:02:36.782Z,5.46
2018-03-12T02:02:37.354Z,5.48
2018-03-12T02:02:37.954Z,5.46
2018-03-12T02:02:38.553Z,5.50
2018-03-12T02:02:39.154Z,5.56
2018-03-12T02:02:39.753Z,5.56
2018-03-12T02:02:40.352Z,5.52
2018-03-12T02:02:40.955Z,5.49
2018-03-12T02:03:34.434Z,5.53
2018-03-12T02:03:35.006Z,5.55
2018-03-12T02:03:35.606Z,5.50
2018-03-12T02:03:36.208Z,5.55
2018-03-12T02:03:36.806Z,5.56
2018-03-12T02:03:37.406Z,5.45
2018-03-12T02:03:38.005Z,5.43
2018-03-12T02:03:38.605Z,5.49
2018-03-12T02:04:32.089Z,5.52
2018-03-12T02:04:32.657Z,5.60
2018-03-12T02:04:33.258Z,5.49
2018-03-12T02:04:33.858Z,5.60
2018-03-12T02:04:34.457Z,5.57
2018-03-12T02:04:35.059Z,5.56
2018-03-12T02:04:35.656Z,5.56
2018-03-12T02:04:36.257Z,5.53
2018-03-12T02:05:29.738Z,5.56
2018-03-12T02:05:30.309Z,5.53
2018-03-12T02:05:30.909Z,5.57
2018-03-12T02:05:31.509Z,5.63
2018-03-12T02:05:32.108Z,5.57
2018-03-12T02:05:32.709Z,5.59
2018-03-12T02:05:33.308Z,5.56
2018-03-12T02:05:33.908Z,5.64
2018-03-12T02:06:27.388Z,5.59
2018-03-12T02:06:27.966Z,5.63
2018-03-12T02:06:28.561Z,5.63
2018-03-12T02:06:29.159Z,5.63
2018-03-12T02:06:29.763Z,5.55
2018-03-12T02:06:30.361Z,5.63
2018-03-12T02:06:30.959Z,5.53
2018-03-12T02:06:31.560Z,5.59
2018-03-12T02:07:26.064Z,5.63
2018-03-12T02:07:26.635Z,5.71
2018-03-12T02:07:27.235Z,5.66
2018-03-12T02:07:27.835Z,5.70
2018-03-12T02:07:28.438Z,5.67
2018-03-12T02:07:29.037Z,5.63
2018-03-12T02:07:29.635Z,5.64
2018-03-12T02:07:30.235Z,5.71
2018-03-12T02:08:24.740Z,5.63
2018-03-12T02:08:25.314Z,5.68
2018-03-12T02:08:25.911Z,5.64
2018-03-12T02:08:26.511Z,5.73
2018-03-12T02:08:27.110Z,5.64
2018-03-12T02:08:27.711Z,5.66
2018-03-12T02:08:28.310Z,5.66
2018-03-12T02:08:28.911Z,5.66
2018-03-12T02:09:23.414Z,5.78
2018-03-12T02:09:23.987Z,5.73
2018-03-12T02:09:24.586Z,5.77
2018-03-12T02:09:25.188Z,5.67
2018-03-12T02:09:25.787Z,5.70
2018-03-12T02:09:26.386Z,5.67
2018-03-12T02:09:26.988Z,5.68
2018-03-12T02:09:27.587Z,5.66
2018-03-12T02:10:21.068Z,5.78
2018-03-12T02:10:21.641Z,5.75
2018-03-12T02:10:22.241Z,5.71
2018-03-12T02:10:22.840Z,5.73
2018-03-12T02:10:23.438Z,5.70
2018-03-12T02:10:24.041Z,5.71
2018-03-12T02:10:24.640Z,5.74
2018-03-12T02:10:25.238Z,5.74
2018-03-12T02:11:18.720Z,5.77
2018-03-12T02:11:19.300Z,5.83
2018-03-12T02:11:19.892Z,5.71
2018-03-12T02:11:20.492Z,5.83
2018-03-12T02:11:21.093Z,5.73
2018-03-12T02:11:21.692Z,5.70
2018-03-12T02:11:22.293Z,5.85
2018-03-12T02:11:22.891Z,5.81
2018-03-12T02:12:17.394Z,5.73
2018-03-12T02:12:17.968Z,5.70
2018-03-12T02:12:18.565Z,5.81
2018-03-12T02:12:19.171Z,5.73
2018-03-12T02:12:19.777Z,5.74
2018-03-12T02:12:20.365Z,5.78
2018-03-12T02:12:20.965Z,5.74
2018-03-12T02:12:21.564Z,5.73
2018-03-12T02:13:16.069Z,5.77
2018-03-12T02:13:16.642Z,5.73
2018-03-12T02:13:17.242Z,5.78
2018-03-12T02:13:17.841Z,5.88
2018-03-12T02:13:18.440Z,5.77
2018-03-12T02:13:19.041Z,5.85
2018-03-12T02:13:19.641Z,5.73
2018-03-12T02:13:20.245Z,5.78
2018-03-12T02:14:14.744Z,5.77
2018-03-12T02:14:15.318Z,5.85
2018-03-12T02:14:15.919Z,5.85
2018-03-12T02:14:16.518Z,5.89
2018-03-12T02:14:17.118Z,5.85
2018-03-12T02:14:17.719Z,5.89
2018-03-12T02:14:18.320Z,5.82
2018-03-12T02:14:18.917Z,5.85
2018-03-12T02:15:13.421Z,5.86
2018-03-12T02:15:13.994Z,5.82
2018-03-12T02:15:14.594Z,5.88
2018-03-12T02:15:15.193Z,5.88
2018-03-12T02:15:15.793Z,5.85
2018-03-12T02:15:16.393Z,5.88
2018-03-12T02:15:16.993Z,5.83
2018-03-12T02:15:17.593Z,5.88
2018-03-12T02:16:12.096Z,5.86
2018-03-12T02:16:12.669Z,5.82
2018-03-12T02:16:13.269Z,5.92
2018-03-12T02:16:13.869Z,5.86
2018-03-12T02:16:14.469Z,5.86
2018-03-12T02:16:15.070Z,5.88
2018-03-12T02:16:15.668Z,5.83
2018-03-12T02:16:16.269Z,5.88
2018-03-12T02:17:09.751Z,5.85
2018-03-12T02:17:10.323Z,5.96
2018-03-12T02:17:10.922Z,6.00
2018-03-12T02:17:11.523Z,5.92
2018-03-12T02:17:12.127Z,5.88
2018-03-12T02:17:12.722Z,5.93
2018-03-12T02:17:13.321Z,5.95
2018-03-12T02:17:13.921Z,5.83
2018-03-12T02:18:08.425Z,5.93
2018-03-12T02:18:08.996Z,5.98
2018-03-12T02:18:09.596Z,5.95
2018-03-12T02:18:10.197Z,5.98
2018-03-12T02:18:10.797Z,5.95
2018-03-12T02:18:11.395Z,6.00
2018-03-12T02:18:11.995Z,5.98
2018-03-12T02:18:12.595Z,6.00
2018-03-12T02:19:06.077Z,5.96
2018-03-12T02:19:06.649Z,5.96
2018-03-12T02:19:07.248Z,6.01
2018-03-12T02:19:07.850Z,5.93
2018-03-12T02:19:08.448Z,6.03
2018-03-12T02:19:09.049Z,6.04
2018-03-12T02:19:09.648Z,5.92
2018-03-12T02:19:10.249Z,5.93
2018-03-12T02:20:03.729Z,5.98
2018-03-12T02:20:04.301Z,5.98
2018-03-12T02:20:04.901Z,6.03
2018-03-12T02:20:05.500Z,6.03
2018-03-12T02:20:06.100Z,6.03
2018-03-12T02:20:06.702Z,5.98
2018-03-12T02:20:07.299Z,6.01
2018-03-12T02:20:07.901Z,5.98
2018-03-12T02:21:01.382Z,5.98
2018-03-12T02:21:01.951Z,6.01
2018-03-12T02:21:02.552Z,6.01
2018-03-12T02:21:03.150Z,6.00
2018-03-12T02:21:03.750Z,6.06
2018-03-12T02:21:04.351Z,6.01
2018-03-12T02:21:04.952Z,6.01
2018-03-12T02:21:05.550Z,6.07
2018-03-12T02:22:00.056Z,6.01
2018-03-12T02:22:00.627Z,6.01
2018-03-12T02:22:01.227Z,6.04
2018-03-12T02:22:01.827Z,6.01
2018-03-12T02:22:02.427Z,6.06
2018-03-12T02:22:03.026Z,6.04
2018-03-12T02:22:03.627Z,6.04
2018-03-12T02:22:04.228Z,6.01
2018-03-12T02:22:58.729Z,6.06
2018-03-12T02:22:59.304Z,6.04
2018-03-12T02:22:59.903Z,6.04
2018-03-12T02:23:00.502Z,6.07
2018-03-12T02:23:01.106Z,6.04
2018-03-12T02:23:01.702Z,6.04
2018-03-12T02:23:02.301Z,6.04
2018-03-12T02:23:02.901Z,6.09
2018-03-12T02:23:57.408Z,6.06
2018-03-12T02:23:57.977Z,6.09
2018-03-12T02:23:58.576Z,6.06
2018-03-12T02:23:59.176Z,6.09
2018-03-12T02:23:59.777Z,6.06
2018-03-12T02:24:00.377Z,6.07
2018-03-12T02:24:00.975Z,6.06
2018-03-12T02:24:01.580Z,6.09
2018-03-12T02:24:55.063Z,6.07
2018-03-12T02:24:55.635Z,6.10
2018-03-12T02:24:56.235Z,6.07
2018-03-12T02:24:56.833Z,6.03
2018-03-12T02:24:57.433Z,6.04
2018-03-12T02:24:58.034Z,6.03
2018-03-12T02:24:58.634Z,6.07
2018-03-12T02:24:59.233Z,6.11
2018-03-12T02:25:53.738Z,6.03
2018-03-12T02:25:54.310Z,6.06
2018-03-12T02:25:54.907Z,6.07
2018-03-12T02:25:55.508Z,6.06
2018-03-12T02:25:56.109Z,6.07
2018-03-12T02:25:56.708Z,6.07
2018-03-12T02:25:57.308Z,6.07
2018-03-12T02:25:57.908Z,6.06
2018-03-12T02:26:52.415Z,6.09
2018-03-12T02:26:52.983Z,6.07
2018-03-12T02:26:53.585Z,6.16
2018-03-12T02:26:54.184Z,6.14
2018-03-12T02:26:54.784Z,6.09
2018-03-12T02:26:55.384Z,6.06
2018-03-12T02:26:55.984Z,6.06
2018-03-12T02:26:56.583Z,6.06
2018-03-12T02:27:51.090Z,6.06
2018-03-12T02:27:51.660Z,6.13
2018-03-12T02:27:52.259Z,6.09
2018-03-12T02:27:52.859Z,6.18
2018-03-12T02:27:53.462Z,6.10
2018-03-12T02:27:54.060Z,6.10
2018-03-12T02:27:54.659Z,6.14
2018-03-12T02:27:55.259Z,6.21
2018-03-12T02:28:49.774Z,6.19
2018-03-12T02:28:50.337Z,6.18
2018-03-12T02:28:50.936Z,6.21
2018-03-12T02:28:51.534Z,6.18
2018-03-12T02:28:52.142Z,6.18
2018-03-12T02:28:52.735Z,6.16
2018-03-12T02:28:53.335Z,6.14
2018-03-12T02:28:53.934Z,6.21
2018-03-12T02:29:47.418Z,6.21
2018-03-12T02:29:47.989Z,6.21
2018-03-12T02:29:48.588Z,6.29
2018-03-12T02:29:49.188Z,6.16
2018-03-12T02:29:49.788Z,6.22
2018-03-12T02:29:50.388Z,6.18
2018-03-12T02:29:50.987Z,6.18
2018-03-12T02:29:51.585Z,6.16
2018-03-12T02:30:45.070Z,6.26
2018-03-12T02:30:45.640Z,6.25
2018-03-12T02:30:46.240Z,6.29
2018-03-12T02:30:46.840Z,6.19
2018-03-12T02:30:47.440Z,6.14
2018-03-12T02:30:48.039Z,6.19
2018-03-12T02:30:48.640Z,6.18
2018-03-12T02:30:49.256Z,6.26
2018-03-12T02:31:42.723Z,6.28
2018-03-12T02:31:43.292Z,6.28
2018-03-12T02:31:43.890Z,6.33
2018-03-12T02:31:44.493Z,6.22
2018-03-12T02:31:45.090Z,6.29
2018-03-12T02:31:45.692Z,6.30
2018-03-12T02:31:46.292Z,6.22
2018-03-12T02:31:46.890Z,6.29
2018-03-12T02:32:40.374Z,6.21
2018-03-12T02:32:40.945Z,6.32
2018-03-12T02:32:41.544Z,6.29
2018-03-12T02:32:42.142Z,6.30
2018-03-12T02:32:42.743Z,6.28
2018-03-12T02:32:43.348Z,6.29
2018-03-12T02:32:43.942Z,6.28
2018-03-12T02:32:44.543Z,6.32
2018-03-12T02:33:38.025Z,6.36
2018-03-12T02:33:38.599Z,6.28
2018-03-12T02:33:39.194Z,6.21
2018-03-12T02:33:39.796Z,6.29
2018-03-12T02:33:40.394Z,6.25
2018-03-12T02:33:40.993Z,6.28
2018-03-12T02:33:41.593Z,6.26
2018-03-12T02:33:42.193Z,6.32
2018-03-12T02:34:35.677Z,6.33
2018-03-12T02:34:36.247Z,6.33
2018-03-12T02:34:36.846Z,6.28
2018-03-12T02:34:37.448Z,6.22
2018-03-12T02:34:38.047Z,6.28
2018-03-12T02:34:38.646Z,6.18
2018-03-12T02:34:39.248Z,6.29
2018-03-12T02:34:39.846Z,6.25
2018-03-12T02:35:33.333Z,6.30
2018-03-12T02:35:33.899Z,6.28
2018-03-12T02:35:34.498Z,6.21
2018-03-12T02:35:35.099Z,6.22
2018-03-12T02:35:35.698Z,6.30
2018-03-12T02:35:36.298Z,6.32
2018-03-12T02:35:36.898Z,6.30
2018-03-12T02:35:37.498Z,6.30
2018-03-12T02:36:30.980Z,6.32
2018-03-12T02:36:31.550Z,6.29
2018-03-12T02:36:32.154Z,6.30
2018-03-12T02:36:32.750Z,6.30
2018-03-12T02:36:33.351Z,6.30
2018-03-12T02:36:33.950Z,6.29
2018-03-12T02:36:34.552Z,6.35
2018-03-12T02:36:35.149Z,6.32
2018-03-12T02:37:28.632Z,6.29
2018-03-12T02:37:29.202Z,6.30
2018-03-12T02:37:29.802Z,6.29
2018-03-12T02:37:30.401Z,6.33
2018-03-12T02:37:31.000Z,6.33
2018-03-12T02:37:31.602Z,6.36
2018-03-12T02:37:32.200Z,6.33
2018-03-12T02:37:32.803Z,6.28
2018-03-12T02:38:26.282Z,6.36
2018-03-12T02:38:26.854Z,6.33
2018-03-12T02:38:27.453Z,6.35
2018-03-12T02:38:28.053Z,6.36
2018-03-12T02:38:28.653Z,6.36
2018-03-12T02:38:29.252Z,6.32
2018-03-12T02:38:29.853Z,6.30
2018-03-12T02:38:30.453Z,6.40
2018-03-12T02:39:23.937Z,6.32
2018-03-12T02:39:24.505Z,6.32
2018-03-12T02:39:25.105Z,6.33
2018-03-12T02:39:25.705Z,6.30
2018-03-12T02:39:26.304Z,6.33
2018-03-12T02:39:26.904Z,6.43
2018-03-12T02:39:27.506Z,6.41
2018-03-12T02:39:28.104Z,6.47
2018-03-12T02:56:37.265Z,6.07
2018-03-12T02:56:37.829Z,6.11
2018-03-12T02:56:38.428Z,6.06
2018-03-12T02:56:39.026Z,6.06
2018-03-12T02:56:39.627Z,6.04
2018-03-12T02:56:40.227Z,6.09
2018-03-12T02:56:40.826Z,6.03
2018-03-12T02:56:41.425Z,6.01
2018-03-12T02:57:34.911Z,6.09
2018-03-12T02:57:35.480Z,6.11
2018-03-12T02:57:36.078Z,6.06
2018-03-12T02:57:36.679Z,6.06
2018-03-12T02:57:37.279Z,6.09
2018-03-12T02:57:37.879Z,6.06
2018-03-12T02:57:38.477Z,6.11
2018-03-12T02:57:39.078Z,6.07
2018-03-12T02:58:33.590Z,6.03
2018-03-12T02:58:34.154Z,6.06
2018-03-12T02:58:34.754Z,6.04
2018-03-12T02:58:35.354Z,6.00
2018-03-12T02:58:35.954Z,6.04
2018-03-12T02:58:36.554Z,6.04
2018-03-12T02:58:37.156Z,6.03
2018-03-12T02:58:37.753Z,5.98
2018-03-12T02:59:31.240Z,5.92
2018-03-12T02:59:31.809Z,6.04
2018-03-12T02:59:32.408Z,6.01
2018-03-12T02:59:33.007Z,5.98
2018-03-12T02:59:33.606Z,6.01
2018-03-12T02:59:34.208Z,6.04
2018-03-12T02:59:34.808Z,5.89
2018-03-12T02:59:35.405Z,5.89
2018-03-12T03:00:28.891Z,5.98
2018-03-12T03:00:29.461Z,5.95
2018-03-12T03:00:30.061Z,6.06
2018-03-12T03:00:30.660Z,5.98
2018-03-12T03:00:31.259Z,5.92
2018-03-12T03:00:31.860Z,5.96
2018-03-12T03:00:32.460Z,5.92
2018-03-12T03:00:33.059Z,5.95
2018-03-12T03:01:27.566Z,5.91
2018-03-12T03:01:28.138Z,5.95
2018-03-12T03:01:28.736Z,5.89
2018-03-12T03:01:29.335Z,6.00
2018-03-12T03:01:29.934Z,6.03
2018-03-12T03:01:30.535Z,5.92
2018-03-12T03:01:31.136Z,5.95
2018-03-12T03:01:31.733Z,6.00
2018-03-12T03:02:26.240Z,5.89
2018-03-12T03:02:26.810Z,6.01
2018-03-12T03:02:27.409Z,5.86
2018-03-12T03:02:28.010Z,5.91
2018-03-12T03:02:28.609Z,6.03
2018-03-12T03:02:29.210Z,5.96
2018-03-12T03:02:29.809Z,5.95
2018-03-12T03:02:30.409Z,5.88
2018-03-12T03:03:24.919Z,5.89
2018-03-12T03:03:25.486Z,5.81
2018-03-12T03:03:26.092Z,5.82
2018-03-12T03:03:26.698Z,5.91
2018-03-12T03:03:27.290Z,5.88
2018-03-12T03:03:27.883Z,5.85
2018-03-12T03:03:28.492Z,5.85
2018-03-12T03:03:29.084Z,5.82
2018-03-12T03:04:22.569Z,5.85
2018-03-12T03:04:23.146Z,5.86
2018-03-12T03:04:23.740Z,5.88
2018-03-12T03:04:24.341Z,5.75
2018-03-12T03:04:24.941Z,5.86
2018-03-12T03:04:25.582Z,5.83
2018-03-12T03:04:26.137Z,5.88
2018-03-12T03:04:26.737Z,5.91
2018-03-12T03:05:21.246Z,5.86
2018-03-12T03:05:21.814Z,5.83
2018-03-12T03:05:22.413Z,5.91
2018-03-12T03:05:23.017Z,5.86
2018-03-12T03:05:23.615Z,5.82
2018-03-12T03:05:24.222Z,5.86
2018-03-12T03:05:24.815Z,5.82
2018-03-12T03:05:25.412Z,5.89
2018-03-12T03:06:18.897Z,5.78
2018-03-12T03:06:19.465Z,5.86
2018-03-12T03:06:20.069Z,5.82
2018-03-12T03:06:20.667Z,5.78
2018-03-12T03:06:21.266Z,5.78
2018-03-12T03:06:21.871Z,5.92
2018-03-12T03:06:22.468Z,5.86
2018-03-12T03:06:23.066Z,5.88
2018-03-12T03:07:16.550Z,5.88
2018-03-12T03:07:17.119Z,5.83
2018-03-12T03:07:17.718Z,5.85
2018-03-12T03:07:18.318Z,5.85
2018-03-12T03:07:18.918Z,5.86
2018-03-12T03:07:19.518Z,5.83
2018-03-12T03:07:20.118Z,5.85
2018-03-12T03:07:20.718Z,5.86
2018-03-12T03:08:14.201Z,5.86
2018-03-12T03:08:14.773Z,5.89
2018-03-12T03:08:15.370Z,5.83
2018-03-12T03:08:15.979Z,5.86
2018-03-12T03:08:16.571Z,5.86
2018-03-12T03:08:17.171Z,5.83
2018-03-12T03:08:17.769Z,5.86
2018-03-12T03:08:18.370Z,5.83
2018-03-12T03:09:12.875Z,5.83
2018-03-12T03:09:13.445Z,5.88
2018-03-12T03:09:14.047Z,5.89
2018-03-12T03:09:14.645Z,5.82
2018-03-12T03:09:15.245Z,5.85
2018-03-12T03:09:15.844Z,5.82
2018-03-12T03:09:16.445Z,5.86
2018-03-12T03:09:17.044Z,5.88
2018-03-12T03:10:11.555Z,5.82
2018-03-12T03:10:12.122Z,5.85
2018-03-12T03:10:12.720Z,5.83
2018-03-12T03:10:13.321Z,5.88
2018-03-12T03:10:13.921Z,5.89
2018-03-12T03:10:14.521Z,5.85
2018-03-12T03:10:15.120Z,5.86
2018-03-12T03:10:15.721Z,5.85
2018-03-12T03:11:09.294Z,5.88
2018-03-12T03:11:09.800Z,5.81
2018-03-12T03:11:10.397Z,5.91
2018-03-12T03:11:10.998Z,5.91
2018-03-12T03:11:11.599Z,5.91
2018-03-12T03:11:12.198Z,5.88
2018-03-12T03:11:12.798Z,5.85
2018-03-12T03:11:13.397Z,5.81
2018-03-12T03:12:07.879Z,5.86
2018-03-12T03:12:08.448Z,5.86
2018-03-12T03:12:09.094Z,5.88
2018-03-12T03:12:09.648Z,5.82
2018-03-12T03:12:10.247Z,5.83
2018-03-12T03:12:10.845Z,5.88
2018-03-12T03:12:11.447Z,5.82
2018-03-12T03:12:12.045Z,5.86
2018-03-12T03:13:05.531Z,5.86
2018-03-12T03:13:06.101Z,5.86
2018-03-12T03:13:06.700Z,5.86
2018-03-12T03:13:07.300Z,5.91
2018-03-12T03:13:07.901Z,5.89
2018-03-12T03:13:08.501Z,5.85
2018-03-12T03:13:09.150Z,5.91
2018-03-12T03:13:09.700Z,5.92
2018-03-12T03:14:03.183Z,5.88
2018-03-12T03:14:03.752Z,5.91
2018-03-12T03:14:04.363Z,5.98
2018-03-12T03:14:04.953Z,5.96
2018-03-12T03:14:05.553Z,6.01
2018-03-12T03:14:06.152Z,5.95
2018-03-12T03:14:06.752Z,6.03
2018-03-12T03:14:07.352Z,6.00
2018-03-12T03:15:01.857Z,5.98
2018-03-12T03:15:02.429Z,6.00
2018-03-12T03:15:03.028Z,5.96
2018-03-12T03:15:03.628Z,5.93
2018-03-12T03:15:04.228Z,5.96
2018-03-12T03:15:04.828Z,5.89
2018-03-12T03:15:05.433Z,5.95
2018-03-12T03:15:06.025Z,5.98
2018-03-12T03:16:00.533Z,5.96
2018-03-12T03:16:01.104Z,5.98
2018-03-12T03:16:01.703Z,5.96
2018-03-12T03:16:02.304Z,6.00
2018-03-12T03:16:02.904Z,6.01
2018-03-12T03:16:03.503Z,5.93
2018-03-12T03:16:04.103Z,5.98
2018-03-12T03:16:04.702Z,5.98
2018-03-12T03:16:59.208Z,5.93
2018-03-12T03:16:59.779Z,5.93
2018-03-12T03:17:00.378Z,5.96
2018-03-12T03:17:00.978Z,5.98
2018-03-12T03:17:01.578Z,5.98
2018-03-12T03:17:02.178Z,6.00
2018-03-12T03:17:02.778Z,6.00
2018-03-12T03:17:03.378Z,5.91
2018-03-12T03:17:56.861Z,5.93
2018-03-12T03:17:57.432Z,5.98
2018-03-12T03:17:58.031Z,5.96
2018-03-12T03:17:58.631Z,6.01
2018-03-12T03:17:59.231Z,6.00
2018-03-12T03:17:59.831Z,6.03
2018-03-12T03:18:00.432Z,5.92
2018-03-12T03:18:01.028Z,5.96
2018-03-12T03:18:54.511Z,6.00
2018-03-12T03:18:55.083Z,6.01
2018-03-12T03:18:55.685Z,5.95
2018-03-12T03:18:56.284Z,6.00
2018-03-12T03:18:56.883Z,6.01
2018-03-12T03:18:57.484Z,5.98
2018-03-12T03:18:58.082Z,5.96
2018-03-12T03:18:58.682Z,5.95
2018-03-12T03:19:53.188Z,6.03
2018-03-12T03:19:53.758Z,5.95
2018-03-12T03:19:54.359Z,6.00
2018-03-12T03:19:54.958Z,5.96
2018-03-12T03:19:55.557Z,5.96
2018-03-12T03:19:56.157Z,6.00
2018-03-12T03:19:56.757Z,5.93
2018-03-12T03:19:57.357Z,5.95
2018-03-12T03:20:51.863Z,5.89
2018-03-12T03:20:52.434Z,5.98
2018-03-12T03:20:53.034Z,6.04
2018-03-12T03:20:53.633Z,5.96
2018-03-12T03:20:54.233Z,5.96
2018-03-12T03:20:54.833Z,5.93
2018-03-12T03:20:55.432Z,6.04
2018-03-12T03:20:56.034Z,6.01
2018-03-12T03:21:50.540Z,5.98
2018-03-12T03:21:51.109Z,6.03
2018-03-12T03:21:51.712Z,5.89
2018-03-12T03:21:52.309Z,6.01
2018-03-12T03:21:52.908Z,6.01
2018-03-12T03:21:53.508Z,6.06
2018-03-12T03:21:54.113Z,6.00
2018-03-12T03:21:54.710Z,6.01
2018-03-12T03:22:48.191Z,6.03
2018-03-12T03:22:48.763Z,6.01
2018-03-12T03:22:49.365Z,6.04
2018-03-12T03:22:49.961Z,6.04
2018-03-12T03:22:50.561Z,5.98
2018-03-12T03:22:51.161Z,6.01
2018-03-12T03:22:51.761Z,6.06
2018-03-12T03:22:52.361Z,6.07
2018-03-12T03:23:45.844Z,6.01
2018-03-12T03:23:46.415Z,6.06
2018-03-12T03:23:47.020Z,6.07
2018-03-12T03:23:47.614Z,6.03
2018-03-12T03:23:48.215Z,6.04
2018-03-12T03:23:48.812Z,6.06
2018-03-12T03:23:49.414Z,6.00
2018-03-12T03:23:50.013Z,6.06
2018-03-12T03:24:43.495Z,6.06
2018-03-12T03:24:44.066Z,6.06
2018-03-12T03:24:44.669Z,6.06
2018-03-12T03:24:45.265Z,6.06
2018-03-12T03:24:45.863Z,6.10
2018-03-12T03:24:46.464Z,6.11
2018-03-12T03:24:47.068Z,6.09
2018-03-12T03:24:47.665Z,6.11
2018-03-12T03:25:41.147Z,6.06
2018-03-12T03:25:41.717Z,6.07
2018-03-12T03:25:42.325Z,6.06
2018-03-12T03:25:42.917Z,6.11
2018-03-12T03:25:43.514Z,6.06
2018-03-12T03:25:44.118Z,6.07
2018-03-12T03:25:44.720Z,6.10
2018-03-12T03:25:45.316Z,6.10
2018-03-12T03:26:40.388Z,6.07
2018-03-12T03:26:40.894Z,6.06
2018-03-12T03:26:41.515Z,6.09
2018-03-12T03:26:42.093Z,6.11
2018-03-12T03:26:42.693Z,6.10
2018-03-12T03:26:43.294Z,6.06
2018-03-12T03:26:43.895Z,6.10
2018-03-12T03:27:38.395Z,6.07
2018-03-12T03:27:38.966Z,6.07
2018-03-12T03:27:39.566Z,6.10
2018-03-12T03:27:40.164Z,6.10
2018-03-12T03:27:40.764Z,6.04
2018-03-12T03:27:41.365Z,6.06
2018-03-12T03:27:41.964Z,6.07
2018-03-12T03:27:42.565Z,6.10
2018-03-12T03:28:36.047Z,6.07
2018-03-12T03:28:36.619Z,6.04
2018-03-12T03:28:37.221Z,6.06
2018-03-12T03:28:37.817Z,6.04
2018-03-12T03:28:38.417Z,6.10
2018-03-12T03:28:39.017Z,6.06
2018-03-12T03:28:39.621Z,6.04
2018-03-12T03:28:40.217Z,6.03
2018-03-12T03:29:34.725Z,6.06
2018-03-12T03:29:35.292Z,6.18
2018-03-12T03:29:35.894Z,6.18
2018-03-12T03:29:36.497Z,6.09
2018-03-12T03:29:37.091Z,6.16
2018-03-12T03:29:37.692Z,6.09
2018-03-12T03:29:38.293Z,6.16
2018-03-12T03:29:38.893Z,6.11
2018-03-12T03:30:33.399Z,6.03
2018-03-12T03:30:33.976Z,6.03
2018-03-12T03:30:34.569Z,6.18
2018-03-12T03:30:35.169Z,6.07
2018-03-12T03:30:35.788Z,6.09
2018-03-12T03:30:36.370Z,6.16
2018-03-12T03:30:36.968Z,6.18
2018-03-12T03:30:37.568Z,6.14
2018-03-12T03:31:31.051Z,6.07
2018-03-12T03:31:31.631Z,6.07
2018-03-12T03:31:32.223Z,6.06
2018-03-12T03:31:32.823Z,6.16
2018-03-12T03:31:33.426Z,6.06
2018-03-12T03:31:34.021Z,6.21
2018-03-12T03:31:34.620Z,6.04
2018-03-12T03:31:35.234Z,6.11
2018-03-12T03:32:29.726Z,6.07
2018-03-12T03:32:30.296Z,6.16
2018-03-12T03:32:30.896Z,6.07
2018-03-12T03:32:31.496Z,6.09
2018-03-12T03:32:32.095Z,6.04
2018-03-12T03:32:32.695Z,6.07
2018-03-12T03:32:33.295Z,6.13
2018-03-12T03:32:33.894Z,6.06
2018-03-12T03:33:40.078Z,6.07
2018-03-12T03:33:40.644Z,6.13
2018-03-12T03:33:41.241Z,6.14
2018-03-12T03:33:41.842Z,6.14
2018-03-12T03:33:42.440Z,6.18
2018-03-12T03:33:43.041Z,6.16
2018-03-12T03:33:43.644Z,6.10
2018-03-12T03:33:44.242Z,6.11
2018-03-12T03:34:37.727Z,6.11
2018-03-12T03:34:38.298Z,6.06
2018-03-12T03:34:38.899Z,6.18
2018-03-12T03:34:39.498Z,6.09
2018-03-12T03:34:40.098Z,6.09
2018-03-12T03:34:40.699Z,6.14
2018-03-12T03:34:41.296Z,6.16
2018-03-12T03:34:41.897Z,6.10
2018-03-12T03:35:36.408Z,6.06
2018-03-12T03:35:36.971Z,6.16
2018-03-12T03:35:37.572Z,6.07
2018-03-12T03:35:38.173Z,6.10
2018-03-12T03:35:38.770Z,6.06
2018-03-12T03:35:39.370Z,6.21
2018-03-12T03:35:39.971Z,6.10
2018-03-12T03:35:40.571Z,6.07